aviador You're here:

KMIS Decoded Metar

MISSION in SD, USA
Report Time2018-01-17 04:55:00
UTC Time2018-01-17 05:10:36
Flight Rules mvfr MVFR
Wind030° at 25 Gusting to 31 kt
W.Rank030° ranks 20
Current wind is above 030° avg. (13.2)
Visibility9999 m
Phenomena:N/A
Clouds:Broken 017 Hf
Broken 022 Hf
Overcast 034 Hf
Expected CloudBase > 800 ft AGL from Temp-Dew spread
Ceiling1,700 ft
Temp05°C (ISA -5)
Dew Point03°C (87% RH)
AAT-5.5°C
QNH1031 hPa
Density Alt1,512 ft
Elevation2,589 ft
Report Wrong Elevation
Raw Report
KMIS 170455Z AUTO 03025G31KT 10SM BKN017 BKN022 OVC034 05/03 A3046
RMK A01=

Extra information for KMIS:More info

Metar Taf Metar & Taf Last 4 Metars F.Rules Stats Wind Profile Meteogram Temp Stats Airport Information Weather charts Add Link Nearby VenuesMetar ALERT Operation Metar Decoded Social comments

AIRNAV info for KMIS